sensor_id;sensor_type;location;lat;lon;timestamp;P1;durP1;ratioP1;P2;durP2;ratioP2
1991;SDS011;997;48.448;8.924;2023-10-19T04:13:06;6.97;;;6.30;;
1991;SDS011;997;48.448;8.924;2023-10-19T04:15:35;6.10;;;5.30;;
1991;SDS011;997;48.448;8.924;2023-10-19T04:18:02;6.87;;;6.10;;
1991;SDS011;997;48.448;8.924;2023-10-19T04:20:33;8.33;;;7.43;;
1991;SDS011;997;48.448;8.924;2023-10-19T04:23:08;6.93;;;6.30;;
1991;SDS011;997;48.448;8.924;2023-10-19T04:25:39;12.47;;;6.60;;
1991;SDS011;997;48.448;8.924;2023-10-19T04:28:05;9.80;;;8.60;;
1991;SDS011;997;48.448;8.924;2023-10-19T04:30:30;9.80;;;8.03;;
1991;SDS011;997;48.448;8.924;2023-10-19T04:32:58;10.37;;;9.47;;
1991;SDS011;997;48.448;8.924;2023-10-19T04:35:26;8.77;;;7.93;;
1991;SDS011;997;48.448;8.924;2023-10-19T04:37:55;7.97;;;7.17;;
1991;SDS011;997;48.448;8.924;2023-10-19T04:40:22;7.83;;;6.27;;
1991;SDS011;997;48.448;8.924;2023-10-19T04:42:49;6.57;;;5.30;;
1991;SDS011;997;48.448;8.924;2023-10-19T04:45:16;6.20;;;5.60;;
1991;SDS011;997;48.448;8.924;2023-10-19T04:47:41;6.07;;;5.47;;
1991;SDS011;997;48.448;8.924;2023-10-19T04:50:07;7.50;;;5.40;;
1991;SDS011;997;48.448;8.924;2023-10-19T04:52:37;6.80;;;6.13;;
1991;SDS011;997;48.448;8.924;2023-10-19T04:55:03;7.30;;;6.20;;
1991;SDS011;997;48.448;8.924;2023-10-19T04:57:29;6.80;;;6.30;;
1991;SDS011;997;48.448;8.924;2023-10-19T04:59:55;7.87;;;7.07;;
1991;SDS011;997;48.448;8.924;2023-10-19T05:02:22;6.67;;;6.07;;
1991;SDS011;997;48.448;8.924;2023-10-19T05:04:48;8.17;;;6.03;;
1991;SDS011;997;48.448;8.924;2023-10-19T05:07:14;6.97;;;6.37;;
1991;SDS011;997;48.448;8.924;2023-10-19T05:09:42;7.80;;;7.10;;
1991;SDS011;997;48.448;8.924;2023-10-19T05:12:08;7.70;;;7.10;;
1991;SDS011;997;48.448;8.924;2023-10-19T05:14:38;8.57;;;7.77;;
1991;SDS011;997;48.448;8.924;2023-10-19T05:17:07;6.30;;;5.70;;
1991;SDS011;997;48.448;8.924;2023-10-19T05:19:37;6.83;;;5.23;;
1991;SDS011;997;48.448;8.924;2023-10-19T05:22:05;6.60;;;5.80;;
1991;SDS011;997;48.448;8.924;2023-10-19T05:24:31;8.00;;;6.30;;
1991;SDS011;997;48.448;8.924;2023-10-19T05:26:57;6.00;;;5.40;;
1991;SDS011;997;48.448;8.924;2023-10-19T05:29:23;6.40;;;5.90;;
1991;SDS011;997;48.448;8.924;2023-10-19T05:31:52;6.50;;;5.90;;
1991;SDS011;997;48.448;8.924;2023-10-19T05:34:22;6.23;;;5.63;;
1991;SDS011;997;48.448;8.924;2023-10-19T05:36:48;5.87;;;5.37;;
1991;SDS011;997;48.448;8.924;2023-10-19T05:39:14;6.33;;;5.57;;
1991;SDS011;997;48.448;8.924;2023-10-19T05:41:41;6.40;;;5.87;;
1991;SDS011;997;48.448;8.924;2023-10-19T05:44:07;5.93;;;5.43;;
1991;SDS011;997;48.448;8.924;2023-10-19T05:46:33;5.73;;;5.33;;
1991;SDS011;997;48.448;8.924;2023-10-19T05:48:59;5.10;;;4.70;;
1991;SDS011;997;48.448;8.924;2023-10-19T05:51:26;6.40;;;5.80;;
1991;SDS011;997;48.448;8.924;2023-10-19T05:53:52;5.80;;;5.30;;
1991;SDS011;997;48.448;8.924;2023-10-19T05:56:19;6.80;;;5.50;;
1991;SDS011;997;48.448;8.924;2023-10-19T05:58:46;6.33;;;5.83;;
1991;SDS011;997;48.448;8.924;2023-10-19T06:01:15;5.90;;;5.30;;
1991;SDS011;997;48.448;8.924;2023-10-19T06:03:43;7.77;;;6.00;;
1991;SDS011;997;48.448;8.924;2023-10-19T06:06:08;6.33;;;5.73;;
1991;SDS011;997;48.448;8.924;2023-10-19T06:08:34;5.60;;;5.20;;
1991;SDS011;997;48.448;8.924;2023-10-19T06:11:01;6.20;;;5.60;;
1991;SDS011;997;48.448;8.924;2023-10-19T06:13:27;5.00;;;4.50;;
1991;SDS011;997;48.448;8.924;2023-10-19T06:15:54;5.43;;;4.93;;
1991;SDS011;997;48.448;8.924;2023-10-19T06:18:20;5.67;;;5.17;;
1991;SDS011;997;48.448;8.924;2023-10-19T06:20:46;5.17;;;4.67;;
1991;SDS011;997;48.448;8.924;2023-10-19T06:23:13;5.43;;;5.00;;
1991;SDS011;997;48.448;8.924;2023-10-19T06:25:38;4.97;;;4.20;;
1991;SDS011;997;48.448;8.924;2023-10-19T06:28:08;5.20;;;4.73;;
1991;SDS011;997;48.448;8.924;2023-10-19T06:30:34;5.67;;;5.07;;
1991;SDS011;997;48.448;8.924;2023-10-19T06:33:00;6.13;;;5.00;;
1991;SDS011;997;48.448;8.924;2023-10-19T06:35:26;4.00;;;3.70;;
1991;SDS011;997;48.448;8.924;2023-10-19T06:37:54;5.83;;;4.63;;
1991;SDS011;997;48.448;8.924;2023-10-19T06:40:20;6.20;;;4.00;;
1991;SDS011;997;48.448;8.924;2023-10-19T06:42:47;4.83;;;4.43;;
1991;SDS011;997;48.448;8.924;2023-10-19T06:45:14;4.90;;;4.20;;
1991;SDS011;997;48.448;8.924;2023-10-19T06:47:44;5.23;;;4.57;;
1991;SDS011;997;48.448;8.924;2023-10-19T06:50:16;4.87;;;4.47;;
1991;SDS011;997;48.448;8.924;2023-10-19T06:52:43;5.07;;;3.57;;
1991;SDS011;997;48.448;8.924;2023-10-19T06:55:11;7.10;;;3.90;;
1991;SDS011;997;48.448;8.924;2023-10-19T06:57:42;4.10;;;3.70;;
1991;SDS011;997;48.448;8.924;2023-10-19T07:00:11;4.23;;;3.80;;
1991;SDS011;997;48.448;8.924;2023-10-19T07:02:43;6.60;;;4.13;;
1991;SDS011;997;48.448;8.924;2023-10-19T07:05:10;4.33;;;4.00;;
1991;SDS011;997;48.448;8.924;2023-10-19T07:07:42;4.10;;;3.70;;
1991;SDS011;997;48.448;8.924;2023-10-19T07:10:10;4.20;;;3.90;;
1991;SDS011;997;48.448;8.924;2023-10-19T07:12:39;5.47;;;5.00;;
1991;SDS011;997;48.448;8.924;2023-10-19T07:15:08;5.10;;;4.70;;
1991;SDS011;997;48.448;8.924;2023-10-19T07:17:38;4.80;;;4.40;;
1991;SDS011;997;48.448;8.924;2023-10-19T07:20:08;5.00;;;4.60;;
1991;SDS011;997;48.448;8.924;2023-10-19T07:22:47;7.70;;;5.63;;
1991;SDS011;997;48.448;8.924;2023-10-19T07:25:13;6.17;;;5.23;;
1991;SDS011;997;48.448;8.924;2023-10-19T07:27:39;4.97;;;4.57;;
1991;SDS011;997;48.448;8.924;2023-10-19T07:30:07;4.73;;;4.33;;
1991;SDS011;997;48.448;8.924;2023-10-19T07:32:34;5.47;;;4.43;;
1991;SDS011;997;48.448;8.924;2023-10-19T07:35:00;4.83;;;4.43;;
1991;SDS011;997;48.448;8.924;2023-10-19T07:37:27;4.70;;;4.30;;
1991;SDS011;997;48.448;8.924;2023-10-19T07:39:53;5.70;;;4.53;;
1991;SDS011;997;48.448;8.924;2023-10-19T07:42:22;4.43;;;4.13;;
1991;SDS011;997;48.448;8.924;2023-10-19T07:44:48;5.70;;;5.20;;
1991;SDS011;997;48.448;8.924;2023-10-19T07:47:14;4.80;;;4.40;;
1991;SDS011;997;48.448;8.924;2023-10-19T07:49:39;5.33;;;4.23;;
1991;SDS011;997;48.448;8.924;2023-10-19T07:52:06;4.63;;;4.23;;
1991;SDS011;997;48.448;8.924;2023-10-19T07:54:34;5.83;;;4.30;;
1991;SDS011;997;48.448;8.924;2023-10-19T07:57:01;4.47;;;4.07;;
1991;SDS011;997;48.448;8.924;2023-10-19T07:59:33;5.93;;;4.10;;
1991;SDS011;997;48.448;8.924;2023-10-19T08:01:59;7.17;;;4.03;;
1991;SDS011;997;48.448;8.924;2023-10-19T08:04:29;3.80;;;3.50;;
1991;SDS011;997;48.448;8.924;2023-10-19T08:06:55;4.70;;;4.20;;
1991;SDS011;997;48.448;8.924;2023-10-19T08:09:22;7.43;;;4.10;;
1991;SDS011;997;48.448;8.924;2023-10-19T08:11:49;12.83;;;11.60;;
1991;SDS011;997;48.448;8.924;2023-10-19T08:14:20;5.67;;;5.03;;
1991;SDS011;997;48.448;8.924;2023-10-19T08:16:50;4.37;;;4.00;;
1991;SDS011;997;48.448;8.924;2023-10-19T08:19:17;4.83;;;4.40;;
1991;SDS011;997;48.448;8.924;2023-10-19T08:21:43;4.70;;;4.30;;
1991;SDS011;997;48.448;8.924;2023-10-19T08:24:09;4.50;;;4.20;;
1991;SDS011;997;48.448;8.924;2023-10-19T08:26:41;5.00;;;4.53;;
1991;SDS011;997;48.448;8.924;2023-10-19T08:29:07;6.00;;;5.17;;
1991;SDS011;997;48.448;8.924;2023-10-19T08:31:42;5.57;;;4.30;;
1991;SDS011;997;48.448;8.924;2023-10-19T08:34:10;4.23;;;3.93;;
1991;SDS011;997;48.448;8.924;2023-10-19T08:36:37;13.80;;;5.00;;
1991;SDS011;997;48.448;8.924;2023-10-19T08:39:06;4.57;;;4.27;;
1991;SDS011;997;48.448;8.924;2023-10-19T08:41:33;4.30;;;3.73;;
1991;SDS011;997;48.448;8.924;2023-10-19T09:12:27;3.70;;;3.40;;
1991;SDS011;997;48.448;8.924;2023-10-19T09:14:53;4.37;;;3.97;;
1991;SDS011;997;48.448;8.924;2023-10-19T09:17:37;5.97;;;5.30;;
1991;SDS011;997;48.448;8.924;2023-10-19T09:20:06;5.03;;;3.47;;
1991;SDS011;997;48.448;8.924;2023-10-19T09:22:35;4.40;;;3.50;;
1991;SDS011;997;48.448;8.924;2023-10-19T09:25:09;4.60;;;4.20;;
1991;SDS011;997;48.448;8.924;2023-10-19T09:27:35;7.80;;;4.63;;
1991;SDS011;997;48.448;8.924;2023-10-19T09:30:00;5.80;;;4.70;;
1991;SDS011;997;48.448;8.924;2023-10-19T09:32:28;6.17;;;5.57;;
1991;SDS011;997;48.448;8.924;2023-10-19T09:34:55;8.47;;;6.67;;
1991;SDS011;997;48.448;8.924;2023-10-19T09:37:21;6.87;;;6.17;;
1991;SDS011;997;48.448;8.924;2023-10-19T09:39:46;6.50;;;5.90;;
1991;SDS011;997;48.448;8.924;2023-10-19T09:42:12;8.07;;;5.73;;
1991;SDS011;997;48.448;8.924;2023-10-19T09:44:43;7.87;;;7.17;;
1991;SDS011;997;48.448;8.924;2023-10-19T09:47:11;6.57;;;5.87;;
1991;SDS011;997;48.448;8.924;2023-10-19T09:49:40;8.03;;;5.77;;
1991;SDS011;997;48.448;8.924;2023-10-19T09:52:07;4.27;;;3.87;;
1991;SDS011;997;48.448;8.924;2023-10-19T09:54:41;6.37;;;3.27;;
1991;SDS011;997;48.448;8.924;2023-10-19T09:58:07;2.43;;;2.23;;
1991;SDS011;997;48.448;8.924;2023-10-19T10:00:21;2.77;;;2.50;;
1991;SDS011;997;48.448;8.924;2023-10-19T10:02:50;2.70;;;2.50;;
1991;SDS011;997;48.448;8.924;2023-10-19T10:15:53;2.33;;;2.13;;
1991;SDS011;997;48.448;8.924;2023-10-19T10:18:31;5.30;;;3.73;;
1991;SDS011;997;48.448;8.924;2023-10-19T10:21:16;5.00;;;4.07;;
1991;SDS011;997;48.448;8.924;2023-10-19T10:23:47;6.50;;;5.87;;
1991;SDS011;997;48.448;8.924;2023-10-19T10:26:15;6.00;;;5.60;;
1991;SDS011;997;48.448;8.924;2023-10-19T10:28:46;4.30;;;4.00;;
1991;SDS011;997;48.448;8.924;2023-10-19T10:31:14;2.20;;;1.73;;
1991;SDS011;997;48.448;8.924;2023-10-19T10:36:16;3.07;;;2.30;;
1991;SDS011;997;48.448;8.924;2023-10-19T10:38:43;2.60;;;2.07;;
1991;SDS011;997;48.448;8.924;2023-10-19T10:41:10;3.80;;;1.67;;
1991;SDS011;997;48.448;8.924;2023-10-19T10:43:48;1.37;;;1.27;;
1991;SDS011;997;48.448;8.924;2023-10-19T10:46:18;3.10;;;2.30;;
1991;SDS011;997;48.448;8.924;2023-10-19T10:48:46;1.93;;;1.70;;
1991;SDS011;997;48.448;8.924;2023-10-19T10:51:26;2.70;;;2.40;;
1991;SDS011;997;48.448;8.924;2023-10-19T10:53:57;2.53;;;1.97;;
1991;SDS011;997;48.448;8.924;2023-10-19T10:56:23;2.43;;;1.90;;
1991;SDS011;997;48.448;8.924;2023-10-19T10:58:49;2.10;;;1.90;;
1991;SDS011;997;48.448;8.924;2023-10-19T11:01:18;4.50;;;1.70;;
1991;SDS011;997;48.448;8.924;2023-10-19T11:04:05;3.20;;;2.13;;
1991;SDS011;997;48.448;8.924;2023-10-19T11:06:45;2.40;;;2.20;;
1991;SDS011;997;48.448;8.924;2023-10-19T11:09:20;2.50;;;1.83;;
1991;SDS011;997;48.448;8.924;2023-10-19T11:11:49;2.30;;;2.10;;
1991;SDS011;997;48.448;8.924;2023-10-19T11:14:17;3.50;;;2.57;;
1991;SDS011;997;48.448;8.924;2023-10-19T11:16:43;2.30;;;2.00;;
1991;SDS011;997;48.448;8.924;2023-10-19T11:19:08;3.57;;;2.17;;
1991;SDS011;997;48.448;8.924;2023-10-19T11:21:37;2.33;;;1.83;;
1991;SDS011;997;48.448;8.924;2023-10-19T11:24:03;2.60;;;1.80;;
1991;SDS011;997;48.448;8.924;2023-10-19T11:26:29;2.87;;;2.07;;
1991;SDS011;997;48.448;8.924;2023-10-19T11:29:01;3.17;;;2.97;;
1991;SDS011;997;48.448;8.924;2023-10-19T11:31:29;2.60;;;2.40;;
1991;SDS011;997;48.448;8.924;2023-10-19T11:34:02;1.87;;;1.70;;
1991;SDS011;997;48.448;8.924;2023-10-19T11:36:29;2.43;;;1.63;;
1991;SDS011;997;48.448;8.924;2023-10-19T11:38:55;1.87;;;1.50;;
1991;SDS011;997;48.448;8.924;2023-10-19T11:41:21;2.07;;;1.77;;
1991;SDS011;997;48.448;8.924;2023-10-19T11:43:48;2.97;;;2.23;;
1991;SDS011;997;48.448;8.924;2023-10-19T11:46:14;2.33;;;1.77;;
1991;SDS011;997;48.448;8.924;2023-10-19T11:48:42;1.30;;;1.20;;
1991;SDS011;997;48.448;8.924;2023-10-19T11:51:08;14.30;;;11.97;;
1991;SDS011;997;48.448;8.924;2023-10-19T11:53:38;32.13;;;25.80;;
1991;SDS011;997;48.448;8.924;2023-10-19T11:56:11;5.40;;;3.17;;
1991;SDS011;997;48.448;8.924;2023-10-19T11:58:38;2.50;;;2.10;;
1991;SDS011;997;48.448;8.924;2023-10-19T12:01:06;1.50;;;1.40;;
1991;SDS011;997;48.448;8.924;2023-10-19T12:03:36;2.10;;;1.90;;
1991;SDS011;997;48.448;8.924;2023-10-19T12:06:06;2.40;;;2.20;;
1991;SDS011;997;48.448;8.924;2023-10-19T12:08:32;2.53;;;2.33;;
1991;SDS011;997;48.448;8.924;2023-10-19T12:10:59;3.00;;;2.80;;
1991;SDS011;997;48.448;8.924;2023-10-19T12:13:30;2.73;;;2.50;;
1991;SDS011;997;48.448;8.924;2023-10-19T12:15:56;1.83;;;1.63;;
1991;SDS011;997;48.448;8.924;2023-10-19T12:18:23;1.33;;;1.20;;
1991;SDS011;997;48.448;8.924;2023-10-19T12:20:51;1.33;;;1.23;;
1991;SDS011;997;48.448;8.924;2023-10-19T12:23:21;1.93;;;0.93;;
1991;SDS011;997;48.448;8.924;2023-10-19T12:25:48;1.40;;;1.00;;
1991;SDS011;997;48.448;8.924;2023-10-19T12:28:14;2.63;;;1.50;;
1991;SDS011;997;48.448;8.924;2023-10-19T12:30:42;2.03;;;1.80;;
1991;SDS011;997;48.448;8.924;2023-10-19T12:33:08;2.00;;;1.50;;
1991;SDS011;997;48.448;8.924;2023-10-19T12:35:41;1.67;;;1.20;;
1991;SDS011;997;48.448;8.924;2023-10-19T12:38:10;1.17;;;1.00;;
1991;SDS011;997;48.448;8.924;2023-10-19T12:40:44;2.43;;;2.10;;
1991;SDS011;997;48.448;8.924;2023-10-19T12:43:11;2.20;;;2.00;;
1991;SDS011;997;48.448;8.924;2023-10-19T12:45:38;1.80;;;1.70;;
1991;SDS011;997;48.448;8.924;2023-10-19T12:48:05;3.03;;;2.83;;
1991;SDS011;997;48.448;8.924;2023-10-19T12:50:33;8.80;;;7.30;;
1991;SDS011;997;48.448;8.924;2023-10-19T12:52:59;8.57;;;7.77;;
1991;SDS011;997;48.448;8.924;2023-10-19T12:55:25;8.60;;;7.80;;
1991;SDS011;997;48.448;8.924;2023-10-19T12:57:56;5.07;;;4.67;;
1991;SDS011;997;48.448;8.924;2023-10-19T13:00:22;4.77;;;4.30;;
1991;SDS011;997;48.448;8.924;2023-10-19T13:02:54;3.23;;;2.93;;
1991;SDS011;997;48.448;8.924;2023-10-19T13:05:27;2.90;;;2.70;;
1991;SDS011;997;48.448;8.924;2023-10-19T13:07:53;3.03;;;2.73;;
1991;SDS011;997;48.448;8.924;2023-10-19T13:10:23;2.70;;;2.50;;
1991;SDS011;997;48.448;8.924;2023-10-19T13:12:59;2.50;;;2.20;;
1991;SDS011;997;48.448;8.924;2023-10-19T13:15:30;2.30;;;1.87;;
1991;SDS011;997;48.448;8.924;2023-10-19T13:18:00;6.67;;;6.17;;
1991;SDS011;997;48.448;8.924;2023-10-19T13:20:26;4.10;;;3.70;;
1991;SDS011;997;48.448;8.924;2023-10-19T13:22:53;5.83;;;5.33;;
1991;SDS011;997;48.448;8.924;2023-10-19T13:25:21;9.20;;;8.40;;
1991;SDS011;997;48.448;8.924;2023-10-19T13:28:04;9.57;;;8.70;;
1991;SDS011;997;48.448;8.924;2023-10-19T13:30:35;10.90;;;9.90;;
1991;SDS011;997;48.448;8.924;2023-10-19T13:33:21;11.70;;;10.77;;
1991;SDS011;997;48.448;8.924;2023-10-19T13:35:48;11.97;;;10.77;;
1991;SDS011;997;48.448;8.924;2023-10-19T13:38:15;12.07;;;10.77;;
1991;SDS011;997;48.448;8.924;2023-10-19T13:40:47;11.47;;;10.50;;
1991;SDS011;997;48.448;8.924;2023-10-19T13:43:15;15.57;;;14.17;;
1991;SDS011;997;48.448;8.924;2023-10-19T13:45:43;11.87;;;10.87;;
1991;SDS011;997;48.448;8.924;2023-10-19T13:48:09;12.07;;;11.27;;
1991;SDS011;997;48.448;8.924;2023-10-19T13:50:40;10.73;;;9.77;;
1991;SDS011;997;48.448;8.924;2023-10-19T13:53:08;11.07;;;10.13;;
1991;SDS011;997;48.448;8.924;2023-10-19T13:55:34;11.37;;;10.20;;
1991;SDS011;997;48.448;8.924;2023-10-19T13:58:01;11.57;;;10.77;;
1991;SDS011;997;48.448;8.924;2023-10-19T14:00:27;9.93;;;9.13;;
1991;SDS011;997;48.448;8.924;2023-10-19T14:03:00;12.50;;;11.20;;
1991;SDS011;997;48.448;8.924;2023-10-19T14:05:27;11.70;;;10.80;;
1991;SDS011;997;48.448;8.924;2023-10-19T14:07:54;10.50;;;9.50;;
1991;SDS011;997;48.448;8.924;2023-10-19T14:10:21;9.97;;;9.17;;
1991;SDS011;997;48.448;8.924;2023-10-19T14:12:47;10.47;;;9.63;;
1991;SDS011;997;48.448;8.924;2023-10-19T14:15:17;9.40;;;8.60;;
1991;SDS011;997;48.448;8.924;2023-10-19T14:17:45;13.27;;;12.17;;
1991;SDS011;997;48.448;8.924;2023-10-19T14:20:13;13.73;;;12.67;;
1991;SDS011;997;48.448;8.924;2023-10-19T14:22:40;14.07;;;12.87;;
1991;SDS011;997;48.448;8.924;2023-10-19T14:25:07;5.70;;;5.30;;
1991;SDS011;997;48.448;8.924;2023-10-19T14:27:37;3.87;;;3.57;;
1991;SDS011;997;48.448;8.924;2023-10-19T14:30:16;15.70;;;14.40;;
1991;SDS011;997;48.448;8.924;2023-10-19T14:32:46;29.57;;;26.70;;
1991;SDS011;997;48.448;8.924;2023-10-19T14:35:13;21.93;;;19.80;;
1991;SDS011;997;48.448;8.924;2023-10-19T14:37:42;13.60;;;12.50;;
1991;SDS011;997;48.448;8.924;2023-10-19T14:40:12;7.77;;;7.17;;
1991;SDS011;997;48.448;8.924;2023-10-19T14:42:41;3.70;;;3.40;;
